createdAt,value
2022-12-26T00:03:23.145Z,93.10
2022-12-26T00:08:26.702Z,93.10
2022-12-26T00:13:38.751Z,93.10
2022-12-26T00:18:44.151Z,93.10
2022-12-26T00:23:48.104Z,93.10
2022-12-26T00:28:50.862Z,93.10
2022-12-26T00:33:53.441Z,93.10
2022-12-26T00:38:58.745Z,93.00
2022-12-26T00:44:00.965Z,93.00
2022-12-26T00:49:03.200Z,93.00
2022-12-26T00:54:06.711Z,93.00
2022-12-26T00:59:08.840Z,93.10
2022-12-26T01:04:11.168Z,93.10
2022-12-26T01:09:14.841Z,93.10
2022-12-26T01:14:18.230Z,93.10
2022-12-26T01:19:20.346Z,93.00
2022-12-26T01:24:23.849Z,92.90
2022-12-26T01:29:25.945Z,93.10
2022-12-26T01:34:28.059Z,93.10
2022-12-26T01:39:31.563Z,93.10
2022-12-26T01:45:02.298Z,93.10
2022-12-26T01:50:06.951Z,93.10
2022-12-26T01:55:13.324Z,93.00
2022-12-26T02:00:16.300Z,93.00
2022-12-26T02:05:18.771Z,93.00
2022-12-26T02:10:27.609Z,93.00
2022-12-26T02:15:30.436Z,93.00
2022-12-26T02:20:42.126Z,93.00
2022-12-26T02:26:27.092Z,93.00
2022-12-26T02:31:35.897Z,93.10
2022-12-26T02:36:55.583Z,93.00
2022-12-26T02:42:08.522Z,93.10
2022-12-26T02:47:22.574Z,93.10
2022-12-26T02:52:31.960Z,93.10
2022-12-26T02:57:40.669Z,93.10
2022-12-26T03:02:47.753Z,93.10
2022-12-26T03:07:50.455Z,93.10
2022-12-26T03:12:56.815Z,93.20
2022-12-26T03:18:05.648Z,93.10
2022-12-26T03:23:10.694Z,93.10
2022-12-26T03:28:13.828Z,93.10
2022-12-26T03:33:19.507Z,93.20
2022-12-26T03:38:27.426Z,93.20
2022-12-26T03:43:45.232Z,93.20
2022-12-26T03:48:56.923Z,93.20
2022-12-26T03:54:08.221Z,93.20
2022-12-26T03:59:15.208Z,93.10
2022-12-26T04:04:20.998Z,93.10
2022-12-26T04:09:29.201Z,93.20
2022-12-26T04:14:46.932Z,93.10
2022-12-26T04:20:01.897Z,93.10
2022-12-26T04:25:11.374Z,93.20
2022-12-26T04:30:13.844Z,93.10
2022-12-26T04:35:21.814Z,93.10
2022-12-26T04:40:29.611Z,93.20
2022-12-26T04:45:31.767Z,93.20
2022-12-26T04:50:35.448Z,93.10
2022-12-26T04:55:37.587Z,93.10
2022-12-26T05:00:39.753Z,93.10
2022-12-26T05:05:45.491Z,93.20
2022-12-26T05:10:47.643Z,93.10
2022-12-26T05:15:49.851Z,93.10
2022-12-26T05:20:53.430Z,93.10
2022-12-26T05:25:55.777Z,93.10
2022-12-26T05:30:58.154Z,93.10
2022-12-26T05:36:01.706Z,93.10
2022-12-26T05:41:04.416Z,93.10
2022-12-26T05:46:06.555Z,93.10
2022-12-26T05:51:10.139Z,93.10
2022-12-26T05:56:14.320Z,93.00
2022-12-26T06:01:18.949Z,93.00
2022-12-26T06:06:24.513Z,93.00
2022-12-26T06:11:27.581Z,93.00
2022-12-26T06:16:29.816Z,93.10
2022-12-26T06:21:33.439Z,93.10
2022-12-26T06:26:35.698Z,93.10
2022-12-26T06:31:38.088Z,93.10
2022-12-26T06:36:41.752Z,93.20
2022-12-26T06:41:43.842Z,93.10
2022-12-26T06:46:46.214Z,93.10
2022-12-26T06:51:49.847Z,93.00
2022-12-26T06:56:52.066Z,93.00
2022-12-26T07:01:54.205Z,93.00
2022-12-26T07:06:57.889Z,93.00
2022-12-26T07:12:00.046Z,93.00
2022-12-26T07:17:02.162Z,92.90
2022-12-26T07:22:05.675Z,92.90
2022-12-26T07:27:07.809Z,92.80
2022-12-26T07:32:10.064Z,92.80
2022-12-26T07:37:13.764Z,92.80
2022-12-26T07:42:15.892Z,92.80
2022-12-26T07:47:17.952Z,92.80
2022-12-26T07:52:21.509Z,92.80
2022-12-26T07:57:47.461Z,92.70
2022-12-26T08:02:48.342Z,92.70
2022-12-26T08:07:52.230Z,92.60
2022-12-26T08:12:55.533Z,92.70
2022-12-26T08:17:57.705Z,92.60
2022-12-26T08:23:01.234Z,92.60
2022-12-26T08:28:03.457Z,92.60
2022-12-26T08:33:05.577Z,93.00
2022-12-26T08:38:09.181Z,92.60
2022-12-26T08:43:31.036Z,92.50
2022-12-26T08:48:36.819Z,92.50
2022-12-26T08:53:40.477Z,92.50
2022-12-26T08:58:44.608Z,92.50
2022-12-26T09:03:47.206Z,92.50
2022-12-26T09:08:50.983Z,92.30
2022-12-26T09:13:54.075Z,92.20
2022-12-26T09:18:58.416Z,92.10
2022-12-26T09:24:05.141Z,92.10
2022-12-26T09:29:07.913Z,92.00
2022-12-26T09:34:10.068Z,92.00
2022-12-26T09:39:13.694Z,91.90
2022-12-26T09:44:20.679Z,91.80
2022-12-26T09:49:26.083Z,91.80
2022-12-26T09:54:34.017Z,91.70
2022-12-26T09:59:46.172Z,91.80
2022-12-26T10:04:49.029Z,91.80
2022-12-26T10:10:00.142Z,91.70
2022-12-26T10:15:15.113Z,91.90
2022-12-26T10:20:25.025Z,92.00
2022-12-26T10:25:38.827Z,92.10
2022-12-26T10:30:42.771Z,92.20
2022-12-26T10:35:46.981Z,92.30
2022-12-26T10:40:54.039Z,92.40
2022-12-26T10:46:18.853Z,92.40
2022-12-26T10:51:21.211Z,92.60
2022-12-26T10:56:26.586Z,93.00
2022-12-26T11:01:34.343Z,92.70
2022-12-26T11:06:40.341Z,92.70
2022-12-26T11:11:49.383Z,92.90
2022-12-26T11:16:52.599Z,92.60
2022-12-26T11:21:54.818Z,91.60
2022-12-26T11:27:18.297Z,91.00
2022-12-26T11:32:20.906Z,90.40
2022-12-26T11:37:27.911Z,90.70
2022-12-26T11:42:31.793Z,90.70
2022-12-26T11:47:33.959Z,90.80
2022-12-26T11:52:38.923Z,91.20
2022-12-26T11:57:42.514Z,90.90
2022-12-26T12:02:44.997Z,91.10
2022-12-26T12:07:58.645Z,91.30
2022-12-26T12:13:09.322Z,91.20
2022-12-26T12:18:20.326Z,91.10
2022-12-26T12:23:46.289Z,91.00
2022-12-26T12:29:17.088Z,90.90
2022-12-26T12:34:26.451Z,91.40
2022-12-26T12:39:40.391Z,91.30
2022-12-26T12:44:59.717Z,91.10
2022-12-26T12:50:13.640Z,91.40
2022-12-26T12:55:32.596Z,91.00
2022-12-26T13:00:41.911Z,90.50
2022-12-26T13:05:54.170Z,90.30
2022-12-26T13:11:01.965Z,90.20
2022-12-26T13:16:10.380Z,90.20
2022-12-26T13:21:14.172Z,90.30
2022-12-26T13:26:20.161Z,90.40
2022-12-26T13:31:24.144Z,90.60
2022-12-26T13:36:41.850Z,90.60
2022-12-26T13:41:48.516Z,90.30
2022-12-26T13:46:59.219Z,90.50
2022-12-26T13:52:31.629Z,90.30
2022-12-26T13:57:38.127Z,89.50
2022-12-26T14:03:19.747Z,89.90
2022-12-26T14:08:31.930Z,88.10
2022-12-26T14:13:50.280Z,89.30
2022-12-26T14:19:00.647Z,89.10
2022-12-26T14:24:10.775Z,88.70
2022-12-26T14:29:30.456Z,88.40
2022-12-26T14:34:48.528Z,87.50
2022-12-26T14:40:04.996Z,87.90
2022-12-26T14:45:34.319Z,87.90
2022-12-26T14:50:42.749Z,88.10
2022-12-26T14:55:49.867Z,88.50
2022-12-26T15:00:53.644Z,88.70
2022-12-26T15:06:15.732Z,89.10
2022-12-26T15:11:44.189Z,88.70
2022-12-26T15:17:07.097Z,88.40
2022-12-26T15:22:51.137Z,88.00
2022-12-26T15:28:18.148Z,87.90
2022-12-26T15:33:25.987Z,88.30
2022-12-26T15:38:40.227Z,88.90
2022-12-26T15:44:00.689Z,88.80
2022-12-26T15:49:29.596Z,88.70
2022-12-26T15:55:00.360Z,88.50
2022-12-26T16:00:15.887Z,88.60
2022-12-26T16:05:45.786Z,89.10
2022-12-26T16:11:07.395Z,88.90
2022-12-26T16:16:10.229Z,89.60
2022-12-26T16:21:13.818Z,89.60
2022-12-26T16:26:22.846Z,89.60
2022-12-26T16:31:27.832Z,89.60
2022-12-26T16:36:33.844Z,89.70
2022-12-26T16:41:57.906Z,89.70
2022-12-26T16:47:03.394Z,89.70
2022-12-26T16:52:05.671Z,90.00
2022-12-26T16:57:15.089Z,89.80
2022-12-26T17:02:23.055Z,89.60
2022-12-26T17:07:25.568Z,89.80
2022-12-26T17:12:32.883Z,89.80
2022-12-26T17:17:37.385Z,89.90
2022-12-26T17:22:39.481Z,90.00
2022-12-26T17:27:43.867Z,90.10
2022-12-26T17:32:47.873Z,90.20
2022-12-26T17:37:55.061Z,90.20
2022-12-26T17:43:06.209Z,90.20
2022-12-26T17:48:10.135Z,90.20
2022-12-26T17:53:25.497Z,90.50
2022-12-26T17:58:29.519Z,90.30
2022-12-26T18:03:31.716Z,90.30
2022-12-26T18:08:35.843Z,90.30
2022-12-26T18:13:40.063Z,90.30
2022-12-26T18:18:43.953Z,90.40
2022-12-26T18:23:46.150Z,90.30
2022-12-26T18:28:50.394Z,90.40
2022-12-26T18:33:52.837Z,90.40
2022-12-26T18:38:54.971Z,90.30
2022-12-26T18:43:58.689Z,90.30
2022-12-26T18:49:00.827Z,90.30
2022-12-26T18:54:02.941Z,90.30
2022-12-26T18:59:06.435Z,90.30
2022-12-26T19:04:09.373Z,90.40
2022-12-26T19:09:12.682Z,90.40
2022-12-26T19:14:21.047Z,90.40
2022-12-26T19:19:23.153Z,90.40
2022-12-26T19:24:25.388Z,90.40
2022-12-26T19:29:29.213Z,90.30
2022-12-26T19:34:36.122Z,90.40
2022-12-26T19:39:38.262Z,90.40
2022-12-26T19:44:41.917Z,90.50
2022-12-26T19:49:44.097Z,90.50
2022-12-26T19:54:46.199Z,90.60
2022-12-26T19:59:49.744Z,90.70
2022-12-26T20:04:51.901Z,90.70
2022-12-26T20:09:54.068Z,91.10
2022-12-26T20:14:57.680Z,90.70
2022-12-26T20:19:59.807Z,90.70
2022-12-26T20:25:03.781Z,90.80
2022-12-26T20:30:08.981Z,90.80
2022-12-26T20:35:11.126Z,90.80
2022-12-26T20:40:13.364Z,90.80
2022-12-26T20:45:17.063Z,90.90
2022-12-26T20:50:19.203Z,91.00
2022-12-26T20:55:21.319Z,91.00
2022-12-26T21:00:24.815Z,91.00
2022-12-26T21:05:26.961Z,91.10
2022-12-26T21:10:29.044Z,91.00
2022-12-26T21:15:34.345Z,90.80
2022-12-26T21:20:38.240Z,90.80
2022-12-26T21:25:40.340Z,90.70
2022-12-26T21:30:46.333Z,90.70
2022-12-26T21:35:48.611Z,90.70
2022-12-26T21:40:50.937Z,90.80
2022-12-26T21:46:00.971Z,90.80
2022-12-26T21:51:08.299Z,90.80
2022-12-26T21:56:12.895Z,90.80
2022-12-26T22:01:19.381Z,90.80
2022-12-26T22:06:22.421Z,90.80
2022-12-26T22:11:24.902Z,90.90
2022-12-26T22:16:28.594Z,91.00
2022-12-26T22:21:30.869Z,90.90
2022-12-26T22:26:32.997Z,90.80
2022-12-26T22:31:38.346Z,90.80
2022-12-26T22:36:40.902Z,90.80
2022-12-26T22:41:43.353Z,90.80
2022-12-26T22:46:47.683Z,90.70
2022-12-26T22:51:51.101Z,90.70
2022-12-26T22:56:53.294Z,90.80
2022-12-26T23:01:56.846Z,90.70
2022-12-26T23:06:59.671Z,90.70
2022-12-26T23:12:02.224Z,90.80
2022-12-26T23:17:10.581Z,90.80
2022-12-26T23:22:13.012Z,90.70
2022-12-26T23:27:15.168Z,90.70
2022-12-26T23:32:18.682Z,90.70
2022-12-26T23:37:20.782Z,90.80
2022-12-26T23:42:22.876Z,90.80
2022-12-26T23:47:26.589Z,90.80
2022-12-26T23:52:30.529Z,90.80
2022-12-26T23:57:33.116Z,90.90
